Strona główna
METAR-TAF:

METAR-TAF

Lotnisko :

Agen, Francja

Szerokość geograficzna: 44-11N, Długość geograficzna: 000-36E, wysokość: 61 m

Aktualna obserwacja pogody

Raport powstał 39 minut temu, godzina 11:30 UTC
Wiatr 6 kt z kierunków zmiennych
Temperatura 25°C
Wilgotność 44%
Ciśnienie 1018 hPa
Widzialność 10 km lub więcej
Brak chmur poniżej 1500 m i brak chmur cumulonimbus

METAR: LFBA 181130Z AUTO VRB06KT CAVOK 25/12 Q1018 NOSIG

czas: 14:09 (12:09 UTC)

Prognoza

Raport powstał 1 godzina i 9 minut temu, godzina 11:00 UTC
Prognoza ważna od 18 godzina 12 UTC do 18 godzina 21 UTC
Wiatr 8 kt od północny zachód
Widzialność 10 km lub więcej
Rozproszone chmury na wysokości 5000 ft

TAF: LFBA 181100Z 1812/1821 31008KT 9999 SCT050

Obserwacja i prognoza pogody dla ponad 4000 lotnisk (raport METAR i TAF).

Dostępne stacje oznaczono żółtymi i czerwonymi punktami na mapie.

Najedź kursorem aby zobaczyć nazwę stacji.

Kliknij aby zobaczyć obserwacje i prognozy pogody.

Aby zmienić mapę: kliknij na zielony przycisk z czarnym krzyżykiem, aby powiększyć; na zielony przycisk z myślnikiem, aby pomniejszyć; na zielone strzałki, aby przejść do map sąsiednich.


METAR-TAF: